This is the latest recevied weather packets stored in our database for station/object HB9BTL-13. If no packets are shown the sender has not sent any weather packets the latest 10 day(s).
| Time | Temp. | Humidity | Pressure | Rain* | Wind** | Luminosity | Snow |
|---|---|---|---|---|---|---|---|
| 1777830636 | 16.11° C | 96% | 1015 hPa | - | - | - | - |
| 1777829731 | 16.67° C | 94% | 1014.8 hPa | - | - | - | - |
| 1777828825 | 16.67° C | 93% | 1014.7 hPa | - | - | - | - |
| 1777827920 | 17.22° C | 91% | 1014.6 hPa | - | - | - | - |
| 1777827015 | 17.22° C | 92% | 1015 hPa | - | - | - | - |
| 1777826109 | 16.67° C | 91% | 1015.1 hPa | - | - | - | - |
| 1777825204 | 17.22° C | 89% | 1015.6 hPa | - | - | - | - |
| 1777824298 | 17.78° C | 74% | 1015.9 hPa | - | - | - | - |
| 1777823393 | 17.78° C | 76% | 1015.8 hPa | - | - | - | - |
| 1777822487 | 19.44° C | 61% | 1015.7 hPa | - | - | - | - |
| 1777821582 | 20° C | 47% | 1015.2 hPa | - | - | - | - |
| 1777820676 | 21.67° C | 42% | 1014.2 hPa | - | - | - | - |
| 1777819772 | 22.22° C | 42% | 1013.5 hPa | - | - | - | - |
| 1777818865 | 23.33° C | 45% | 1013.3 hPa | - | - | - | - |
| 1777817961 | 23.33° C | 46% | 1013.3 hPa | - | - | - | - |
| 1777817055 | 24.44° C | 41% | 1013.2 hPa | - | - | - | - |
| 1777816150 | 25° C | 40% | 1013.3 hPa | - | - | - | - |
| 1777815245 | 24.44° C | 38% | 1013.4 hPa | - | - | - | - |
| 1777814339 | 23.89° C | 41% | 1013.4 hPa | - | - | - | - |
| 1777813434 | 23.89° C | 43% | 1013.6 hPa | - | - | - | - |
| 1777812528 | 23.89° C | 43% | 1013.8 hPa | - | - | - | - |
| 1777811623 | 23.33° C | 43% | 1013.9 hPa | - | - | - | - |
| 1777810717 | 23.33° C | 46% | 1014.1 hPa | - | - | - | - |
| 1777809812 | 22.78° C | 45% | 1014.2 hPa | - | - | - | - |
| 1777808906 | 22.78° C | 45% | 1014.3 hPa | - | - | - | - |
* Rain since midnight (hover to see other rain measurements)
** Current wind speed in m/s (hover to see current wind gust speed)